Time;durP1;ratioP1;P1;durP2;ratioP2;P2;SDS_P1;SDS_P2;PMS_P1;PMS_P2;Temp;Humidity;BMP_temperature;BMP_pressure;BME280_temperature;BME280_humidity;BME280_pressure;Samples;Min_cycle;Max_cycle;Signal;HPM_P1;HPM_P2
2023/12/20 00:01:39;;;;;;;2.13;1.40;;;;;;;;;;5036687;28;20045;-67
2023/12/20 00:04:05;;;;;;;3.40;2.10;;;;;;;;;;5036858;28;20053;-68
2023/12/20 00:06:31;;;;;;;3.03;2.05;;;;;;;;;;5036154;28;20051;-68
2023/12/20 00:08:57;;;;;;;1.58;1.30;;;;;;;;;;5037558;28;20036;-67
2023/12/20 00:11:23;;;;;;;1.77;1.45;;;;;;;;;;5035537;28;20120;-68
2023/12/20 00:13:49;;;;;;;1.30;1.20;;;;;;;;;;5037315;28;20045;-68
2023/12/20 00:16:14;;;;;;;1.63;1.52;;;;;;;;;;5035865;28;20122;-68
2023/12/20 00:18:39;;;;;;;3.53;1.83;;;;;;;;;;5036793;28;20104;-68
2023/12/20 00:21:05;;;;;;;2.65;1.70;;;;;;;;;;5036695;28;20037;-68
2023/12/20 00:23:30;;;;;;;2.08;1.77;;;;;;;;;;5036840;28;20060;-68
2023/12/20 00:25:56;;;;;;;1.85;1.60;;;;;;;;;;5037046;28;20768;-68
2023/12/20 00:28:21;;;;;;;2.25;1.55;;;;;;;;;;5034922;28;20137;-68
2023/12/20 00:30:47;;;;;;;2.75;1.90;;;;;;;;;;5037321;28;20049;-68
2023/12/20 00:33:12;;;;;;;2.42;1.75;;;;;;;;;;5037276;28;20045;-68
2023/12/20 00:35:38;;;;;;;1.90;1.45;;;;;;;;;;5035402;28;20047;-68
2023/12/20 00:38:05;;;;;;;1.98;1.70;;;;;;;;;;5035656;28;20033;-68
2023/12/20 00:40:30;;;;;;;2.15;1.67;;;;;;;;;;5036940;28;20496;-68
2023/12/20 00:42:55;;;;;;;2.40;1.50;;;;;;;;;;5037354;28;20041;-68
2023/12/20 00:45:21;;;;;;;2.95;1.63;;;;;;;;;;5036394;28;20041;-68
2023/12/20 00:47:46;;;;;;;2.47;1.73;;;;;;;;;;5035727;28;20127;-68
2023/12/20 00:50:12;;;;;;;2.65;1.60;;;;;;;;;;5035868;28;20041;-68
2023/12/20 00:52:37;;;;;;;2.95;2.00;;;;;;;;;;5036555;28;20047;-68
2023/12/20 00:55:03;;;;;;;1.70;1.60;;;;;;;;;;5036600;28;20132;-68
2023/12/20 00:57:29;;;;;;;1.50;1.40;;;;;;;;;;5036536;28;20126;-68
2023/12/20 00:59:54;;;;;;;2.47;1.52;;;;;;;;;;5018376;28;20044;-68
2023/12/20 01:02:20;;;;;;;2.15;1.88;;;;;;;;;;5024396;28;20535;-67
2023/12/20 01:04:45;;;;;;;2.40;1.60;;;;;;;;;;5056264;28;20041;-67
2023/12/20 01:07:10;;;;;;;2.55;1.60;;;;;;;;;;5047462;28;20562;-67
2023/12/20 01:09:36;;;;;;;2.35;1.83;;;;;;;;;;5059244;28;20051;-66
2023/12/20 01:12:01;;;;;;;1.65;1.40;;;;;;;;;;5051268;28;20053;-67
2023/12/20 01:14:27;;;;;;;2.22;1.67;;;;;;;;;;5052346;28;20048;-66
2023/12/20 01:16:52;;;;;;;2.03;1.70;;;;;;;;;;5054034;28;20761;-67
2023/12/20 01:19:17;;;;;;;1.80;1.70;;;;;;;;;;5054057;28;20049;-66
2023/12/20 01:21:43;;;;;;;1.75;1.63;;;;;;;;;;5049973;28;20771;-66
2023/12/20 01:24:09;;;;;;;1.85;1.70;;;;;;;;;;5046135;28;20049;-66
2023/12/20 01:26:34;;;;;;;2.03;1.55;;;;;;;;;;5046868;28;20055;-66
2023/12/20 01:29:00;;;;;;;1.52;1.27;;;;;;;;;;5048618;28;20036;-66
2023/12/20 01:31:27;;;;;;;3.08;2.03;;;;;;;;;;5045789;28;20647;-66
2023/12/20 01:33:52;;;;;;;1.67;1.52;;;;;;;;;;5048292;28;20526;-66
2023/12/20 01:36:18;;;;;;;2.28;1.90;;;;;;;;;;5046201;28;20041;-66
2023/12/20 01:38:43;;;;;;;1.60;1.50;;;;;;;;;;5053353;28;20063;-66
2023/12/20 01:41:09;;;;;;;3.03;1.92;;;;;;;;;;5054286;28;20141;-65
2023/12/20 01:43:34;;;;;;;2.33;1.73;;;;;;;;;;5053009;28;20062;-66
2023/12/20 01:46:00;;;;;;;2.42;1.88;;;;;;;;;;5046197;28;20041;-66
2023/12/20 01:48:27;;;;;;;3.42;2.20;;;;;;;;;;5051109;28;20049;-66
2023/12/20 01:50:54;;;;;;;4.50;1.58;;;;;;;;;;5047657;28;20901;-67
2023/12/20 01:53:21;;;;;;;1.70;1.50;;;;;;;;;;5053972;28;20052;-66
2023/12/20 01:55:49;;;;;;;1.67;1.58;;;;;;;;;;5052764;28;20041;-65
2023/12/20 01:58:16;;;;;;;2.92;1.77;;;;;;;;;;5056019;28;20052;-66
2023/12/20 02:00:42;;;;;;;1.50;1.40;;;;;;;;;;5050249;28;20053;-65
2023/12/20 02:03:08;;;;;;;1.85;1.58;;;;;;;;;;5055140;28;20048;-65
2023/12/20 02:05:35;;;;;;;1.85;1.40;;;;;;;;;;5039427;28;20045;-66
2023/12/20 02:08:00;;;;;;;1.80;1.38;;;;;;;;;;5041635;28;20048;-65
2023/12/20 02:10:27;;;;;;;1.95;1.80;;;;;;;;;;5040939;28;20053;-66
2023/12/20 02:12:52;;;;;;;2.03;1.10;;;;;;;;;;5054558;28;20603;-65
2023/12/20 02:15:18;;;;;;;1.40;1.23;;;;;;;;;;5048936;28;20053;-65
2023/12/20 02:17:45;;;;;;;1.15;1.05;;;;;;;;;;5052715;28;20088;-66
2023/12/20 02:20:10;;;;;;;2.28;1.70;;;;;;;;;;5051780;28;20076;-66
2023/12/20 02:22:36;;;;;;;2.22;1.50;;;;;;;;;;5050978;28;20530;-66
2023/12/20 02:25:01;;;;;;;1.83;1.60;;;;;;;;;;5058410;28;20044;-66
2023/12/20 02:27:28;;;;;;;1.90;1.40;;;;;;;;;;5053236;28;20048;-66
2023/12/20 02:29:53;;;;;;;2.38;1.40;;;;;;;;;;5049777;28;20052;-66
2023/12/20 02:32:20;;;;;;;2.03;1.58;;;;;;;;;;5042008;28;20057;-66
2023/12/20 02:34:47;;;;;;;2.28;1.55;;;;;;;;;;5042765;28;20132;-66
2023/12/20 02:37:12;;;;;;;2.13;1.35;;;;;;;;;;5049732;28;20051;-66
2023/12/20 02:39:38;;;;;;;3.08;1.73;;;;;;;;;;5047886;28;20053;-66
2023/12/20 02:42:04;;;;;;;1.77;1.67;;;;;;;;;;5043323;28;20744;-66
2023/12/20 02:44:29;;;;;;;2.90;1.77;;;;;;;;;;5056521;28;20044;-67
2023/12/20 02:46:54;;;;;;;2.58;2.13;;;;;;;;;;5058674;28;20055;-66
2023/12/20 02:49:20;;;;;;;3.22;1.73;;;;;;;;;;5058245;28;20063;-66
2023/12/20 02:51:46;;;;;;;1.77;1.63;;;;;;;;;;5057971;28;20063;-67
2023/12/20 02:54:11;;;;;;;2.70;1.80;;;;;;;;;;5056861;28;20441;-67
2023/12/20 02:56:37;;;;;;;2.17;1.70;;;;;;;;;;5057948;28;20126;-65
2023/12/20 02:59:05;;;;;;;2.10;1.80;;;;;;;;;;5058244;28;20113;-65
2023/12/20 03:01:31;;;;;;;3.78;2.00;;;;;;;;;;5057542;28;20052;-65
2023/12/20 03:03:56;;;;;;;2.03;1.80;;;;;;;;;;5058142;28;20036;-65
2023/12/20 03:06:22;;;;;;;2.13;1.73;;;;;;;;;;5056388;28;20048;-65
2023/12/20 03:08:47;;;;;;;2.70;2.20;;;;;;;;;;5057831;28;20414;-65
2023/12/20 03:11:13;;;;;;;4.30;2.10;;;;;;;;;;5058019;28;20506;-65
2023/12/20 03:13:38;;;;;;;2.10;1.60;;;;;;;;;;5057736;28;20044;-65
2023/12/20 03:16:11;;;;;;;1.40;1.30;;;;;;;;;;5056370;28;20055;-66
2023/12/20 03:18:37;;;;;;;1.70;1.52;;;;;;;;;;5057719;28;20066;-66
2023/12/20 03:21:03;;;;;;;1.52;1.42;;;;;;;;;;5057804;28;20047;-64
2023/12/20 03:23:30;;;;;;;3.00;1.70;;;;;;;;;;5057092;28;20040;-65
2023/12/20 03:25:56;;;;;;;1.88;1.65;;;;;;;;;;5058139;28;20514;-65
2023/12/20 03:28:22;;;;;;;1.52;1.23;;;;;;;;;;5038727;28;20055;-65
2023/12/20 03:30:48;;;;;;;2.33;1.67;;;;;;;;;;5057443;28;20048;-66
2023/12/20 03:33:13;;;;;;;2.08;1.45;;;;;;;;;;5057610;28;20052;-64
2023/12/20 03:35:39;;;;;;;2.55;1.48;;;;;;;;;;5057058;28;20043;-66
2023/12/20 03:38:04;;;;;;;1.88;1.27;;;;;;;;;;5056946;28;20082;-66
2023/12/20 03:40:30;;;;;;;1.25;1.15;;;;;;;;;;5056620;28;20094;-65
2023/12/20 03:42:55;;;;;;;1.60;1.02;;;;;;;;;;5057177;28;20135;-67
2023/12/20 03:45:21;;;;;;;3.15;1.60;;;;;;;;;;5057014;28;20478;-67
2023/12/20 03:47:46;;;;;;;1.83;1.52;;;;;;;;;;5057044;28;20052;-67
2023/12/20 03:50:12;;;;;;;1.88;1.33;;;;;;;;;;5056100;28;20406;-67
2023/12/20 03:52:37;;;;;;;1.80;1.70;;;;;;;;;;5056820;28;20048;-66
2023/12/20 03:55:03;;;;;;;1.98;1.77;;;;;;;;;;5057341;28;21103;-67
2023/12/20 03:57:28;;;;;;;1.52;1.20;;;;;;;;;;5057076;28;20082;-66
2023/12/20 03:59:54;;;;;;;2.38;1.20;;;;;;;;;;5056231;28;20044;-65
2023/12/20 04:02:19;;;;;;;1.75;1.38;;;;;;;;;;5056292;28;20076;-66
2023/12/20 04:04:45;;;;;;;2.00;1.55;;;;;;;;;;5038866;28;20047;-66
2023/12/20 04:07:10;;;;;;;1.65;1.52;;;;;;;;;;5052970;28;20052;-66
2023/12/20 04:09:35;;;;;;;0.80;0.80;;;;;;;;;;5056284;28;20058;-66
2023/12/20 04:12:02;;;;;;;1.00;1.00;;;;;;;;;;5056273;28;20066;-66
2023/12/20 04:14:27;;;;;;;1.35;0.98;;;;;;;;;;5056318;28;20056;-66
2023/12/20 04:16:53;;;;;;;1.02;0.85;;;;;;;;;;5056411;28;20759;-66
2023/12/20 04:19:19;;;;;;;1.27;1.17;;;;;;;;;;5056984;28;20179;-66
2023/12/20 04:21:44;;;;;;;1.23;1.13;;;;;;;;;;5055773;28;20048;-65
2023/12/20 04:24:09;;;;;;;2.47;1.30;;;;;;;;;;5056126;28;20044;-66
2023/12/20 04:26:35;;;;;;;1.23;0.98;;;;;;;;;;5056304;28;20585;-65
2023/12/20 04:29:00;;;;;;;1.42;1.30;;;;;;;;;;5056934;28;20041;-66
2023/12/20 04:31:25;;;;;;;1.02;1.02;;;;;;;;;;5054641;28;20049;-66
2023/12/20 04:33:51;;;;;;;1.25;0.65;;;;;;;;;;5056017;28;20451;-66
2023/12/20 04:36:16;;;;;;;0.73;0.73;;;;;;;;;;5060488;28;20049;-66
2023/12/20 04:38:41;;;;;;;1.02;0.93;;;;;;;;;;5060766;28;20059;-65
2023/12/20 04:41:07;;;;;;;1.30;0.88;;;;;;;;;;5061045;28;20090;-65
2023/12/20 04:43:33;;;;;;;0.93;0.93;;;;;;;;;;5059876;28;20056;-64
2023/12/20 04:45:58;;;;;;;1.00;1.00;;;;;;;;;;5060703;28;20548;-64
2023/12/20 04:48:23;;;;;;;0.93;0.93;;;;;;;;;;5060060;28;20033;-65
2023/12/20 04:50:49;;;;;;;1.33;1.10;;;;;;;;;;5060008;28;20506;-64
2023/12/20 04:53:14;;;;;;;1.02;0.65;;;;;;;;;;5060316;28;20047;-65
2023/12/20 04:55:40;;;;;;;0.85;0.70;;;;;;;;;;5059070;28;20044;-66
2023/12/20 04:58:05;;;;;;;0.65;0.65;;;;;;;;;;5041860;28;20044;-66
2023/12/20 05:00:31;;;;;;;0.65;0.50;;;;;;;;;;5060420;28;20523;-66
2023/12/20 05:02:56;;;;;;;0.60;0.60;;;;;;;;;;5060289;28;20394;-66
2023/12/20 05:05:22;;;;;;;0.95;0.85;;;;;;;;;;5059588;28;20052;-65
2023/12/20 05:07:47;;;;;;;0.80;0.68;;;;;;;;;;5059868;28;20052;-66
2023/12/20 05:10:12;;;;;;;0.68;0.57;;;;;;;;;;5059846;28;20052;-66
2023/12/20 05:12:38;;;;;;;0.75;0.70;;;;;;;;;;5059872;28;20044;-66
2023/12/20 05:15:07;;;;;;;0.65;0.65;;;;;;;;;;5060448;28;20036;-66
2023/12/20 05:17:33;;;;;;;0.50;0.50;;;;;;;;;;5059273;28;20139;-66
2023/12/20 05:19:58;;;;;;;0.38;0.38;;;;;;;;;;5058999;28;20144;-66
2023/12/20 05:22:24;;;;;;;0.50;0.50;;;;;;;;;;5058688;28;20044;-67
2023/12/20 05:24:49;;;;;;;0.47;0.47;;;;;;;;;;5059126;28;20473;-66
2023/12/20 05:27:14;;;;;;;0.57;0.57;;;;;;;;;;5058748;28;20469;-69
2023/12/20 05:29:40;;;;;;;0.50;0.50;;;;;;;;;;5059452;28;20068;-68
2023/12/20 05:32:05;;;;;;;0.50;0.50;;;;;;;;;;5059089;28;20048;-68
2023/12/20 05:34:31;;;;;;;1.15;0.70;;;;;;;;;;5059016;28;20052;-65
2023/12/20 05:36:58;;;;;;;0.60;0.60;;;;;;;;;;5059178;28;20064;-66
2023/12/20 05:39:23;;;;;;;0.90;0.88;;;;;;;;;;5057614;28;20048;-66
2023/12/20 05:41:49;;;;;;;0.95;0.95;;;;;;;;;;5040783;28;20047;-66
2023/12/20 05:44:14;;;;;;;1.23;1.02;;;;;;;;;;5005944;28;20206;-66
2023/12/20 05:46:40;;;;;;;1.10;1.05;;;;;;;;;;5038195;28;20041;-70
2023/12/20 05:49:06;;;;;;;4.22;0.68;;;;;;;;;;5039655;28;20044;-67
2023/12/20 05:51:31;;;;;;;1.20;0.82;;;;;;;;;;5038521;28;20530;-66
2023/12/20 05:53:57;;;;;;;0.73;0.73;;;;;;;;;;5037707;28;20132;-67
2023/12/20 05:56:22;;;;;;;0.80;0.80;;;;;;;;;;5037008;28;20055;-68
2023/12/20 05:58:48;;;;;;;1.05;1.05;;;;;;;;;;5038246;28;20940;-68
2023/12/20 06:01:14;;;;;;;0.80;0.80;;;;;;;;;;5036565;28;20040;-67
2023/12/20 06:03:43;;;;;;;0.60;0.60;;;;;;;;;;5019217;28;20131;-66
2023/12/20 06:06:09;;;;;;;1.00;0.80;;;;;;;;;;5019257;28;20037;-67
2023/12/20 06:08:35;;;;;;;0.70;0.70;;;;;;;;;;5038394;28;20041;-67
2023/12/20 06:11:01;;;;;;;2.42;0.80;;;;;;;;;;5038251;28;20132;-68
2023/12/20 06:13:26;;;;;;;0.60;0.60;;;;;;;;;;5037198;28;20045;-68
2023/12/20 06:15:53;;;;;;;1.02;0.90;;;;;;;;;;5029014;28;20049;-70
2023/12/20 06:18:19;;;;;;;1.33;0.73;;;;;;;;;;5034921;28;20057;-68
2023/12/20 06:20:44;;;;;;;1.17;0.80;;;;;;;;;;5036759;28;20048;-68
2023/12/20 06:23:10;;;;;;;1.00;1.00;;;;;;;;;;5034949;28;21020;-68
2023/12/20 06:25:35;;;;;;;1.10;1.00;;;;;;;;;;5036398;28;20068;-68
2023/12/20 06:28:00;;;;;;;0.82;0.82;;;;;;;;;;5037350;28;20047;-69
2023/12/20 06:30:27;;;;;;;1.00;0.93;;;;;;;;;;5036872;28;20529;-69
2023/12/20 06:32:53;;;;;;;0.88;0.88;;;;;;;;;;5038036;28;20045;-68
2023/12/20 06:35:19;;;;;;;1.88;0.80;;;;;;;;;;5037259;28;20574;-69
2023/12/20 06:37:44;;;;;;;0.93;0.90;;;;;;;;;;5029239;28;20045;-68
2023/12/20 06:40:10;;;;;;;0.80;0.70;;;;;;;;;;5035574;28;20052;-68
2023/12/20 06:42:36;;;;;;;0.90;0.90;;;;;;;;;;5037819;28;20049;-67
2023/12/20 06:45:02;;;;;;;0.80;0.80;;;;;;;;;;5036675;28;20056;-68
2023/12/20 06:47:27;;;;;;;0.60;0.60;;;;;;;;;;5037130;28;20055;-68
2023/12/20 06:49:52;;;;;;;1.00;0.90;;;;;;;;;;5038169;28;20136;-69
2023/12/20 06:52:18;;;;;;;1.10;1.00;;;;;;;;;;5037798;28;20537;-68
2023/12/20 06:54:43;;;;;;;0.88;0.88;;;;;;;;;;5037461;28;20048;-68
2023/12/20 06:57:09;;;;;;;1.23;0.90;;;;;;;;;;5037115;28;20059;-69
2023/12/20 06:59:41;;;;;;;0.70;0.70;;;;;;;;;;5036757;28;20407;-68
2023/12/20 07:02:08;;;;;;;0.73;0.73;;;;;;;;;;5037453;28;20037;-68
2023/12/20 07:04:34;;;;;;;0.77;0.77;;;;;;;;;;5037832;28;20982;-69
2023/12/20 07:07:00;;;;;;;0.70;0.70;;;;;;;;;;5036691;28;20044;-68
2023/12/20 07:09:28;;;;;;;0.90;0.90;;;;;;;;;;5037239;28;20041;-68
2023/12/20 07:11:53;;;;;;;0.75;0.75;;;;;;;;;;5037330;28;20045;-69
2023/12/20 07:14:19;;;;;;;0.85;0.85;;;;;;;;;;5037018;28;20664;-68
2023/12/20 07:16:44;;;;;;;1.05;0.80;;;;;;;;;;5036961;28;20966;-69
2023/12/20 07:19:09;;;;;;;0.60;0.60;;;;;;;;;;5035968;28;20124;-69
2023/12/20 07:21:35;;;;;;;2.97;0.90;;;;;;;;;;5037684;28;20047;-67
2023/12/20 07:24:00;;;;;;;0.38;0.38;;;;;;;;;;5037062;28;20175;-68
2023/12/20 07:26:26;;;;;;;0.60;0.60;;;;;;;;;;5037311;28;20087;-69
2023/12/20 07:28:51;;;;;;;0.70;0.70;;;;;;;;;;5036198;28;20419;-69
2023/12/20 07:31:16;;;;;;;0.75;0.75;;;;;;;;;;5036907;28;20166;-71
2023/12/20 07:33:42;;;;;;;0.50;0.50;;;;;;;;;;5037261;28;20053;-68
2023/12/20 07:36:07;;;;;;;0.55;0.55;;;;;;;;;;5035884;28;20041;-67
2023/12/20 07:38:33;;;;;;;0.60;0.60;;;;;;;;;;5037418;28;20048;-70
2023/12/20 07:40:59;;;;;;;0.63;0.57;;;;;;;;;;5034396;28;20049;-69
2023/12/20 07:43:24;;;;;;;1.25;0.70;;;;;;;;;;5037821;28;20049;-67
2023/12/20 07:45:50;;;;;;;0.60;0.60;;;;;;;;;;5036396;28;20056;-69
2023/12/20 07:48:15;;;;;;;1.33;0.60;;;;;;;;;;5036489;28;20127;-69
2023/12/20 07:50:41;;;;;;;0.47;0.47;;;;;;;;;;5034961;28;20048;-68
2023/12/20 07:53:06;;;;;;;0.63;0.63;;;;;;;;;;5035780;28;20108;-68
2023/12/20 07:55:32;;;;;;;0.40;0.40;;;;;;;;;;5036735;28;20083;-68
2023/12/20 07:57:58;;;;;;;0.50;0.50;;;;;;;;;;5035831;28;20055;-68
2023/12/20 08:00:23;;;;;;;0.40;0.40;;;;;;;;;;5035775;28;20063;-67
2023/12/20 08:02:48;;;;;;;2.15;1.00;;;;;;;;;;5036257;28;20140;-68
2023/12/20 08:05:14;;;;;;;0.50;0.50;;;;;;;;;;5036834;28;20496;-69
2023/12/20 08:07:39;;;;;;;0.50;0.50;;;;;;;;;;5036854;28;20040;-68
2023/12/20 08:10:05;;;;;;;0.70;0.70;;;;;;;;;;5036284;28;20047;-68
2023/12/20 08:12:31;;;;;;;0.50;0.50;;;;;;;;;;5035685;28;20111;-69
2023/12/20 08:14:57;;;;;;;0.50;0.50;;;;;;;;;;5036419;28;20045;-68
2023/12/20 08:17:23;;;;;;;0.52;0.52;;;;;;;;;;5036298;28;20049;-70
2023/12/20 08:19:48;;;;;;;2.53;0.55;;;;;;;;;;5036913;28;20136;-67
2023/12/20 08:22:14;;;;;;;4.28;0.75;;;;;;;;;;5034751;28;20833;-68
2023/12/20 08:24:39;;;;;;;0.40;0.40;;;;;;;;;;5035868;28;20060;-67
2023/12/20 08:27:05;;;;;;;0.50;0.50;;;;;;;;;;5035896;28;20048;-69
2023/12/20 08:29:30;;;;;;;0.52;0.52;;;;;;;;;;5037448;28;20045;-67
2023/12/20 08:31:56;;;;;;;0.47;0.47;;;;;;;;;;5035324;28;20804;-69
2023/12/20 08:34:23;;;;;;;0.75;0.75;;;;;;;;;;5035817;28;20045;-68
2023/12/20 08:36:50;;;;;;;1.23;0.55;;;;;;;;;;5035582;28;20045;-69
2023/12/20 08:39:15;;;;;;;0.50;0.50;;;;;;;;;;5036880;28;21070;-68
2023/12/20 08:41:40;;;;;;;0.50;0.50;;;;;;;;;;5036665;28;20041;-68
2023/12/20 08:44:06;;;;;;;0.40;0.40;;;;;;;;;;5035855;28;21292;-68
2023/12/20 08:46:31;;;;;;;0.90;0.70;;;;;;;;;;5035560;28;20076;-67
2023/12/20 08:48:56;;;;;;;1.83;0.55;;;;;;;;;;5036082;28;20044;-68
2023/12/20 08:51:23;;;;;;;0.70;0.70;;;;;;;;;;5037342;28;20582;-70
2023/12/20 08:53:49;;;;;;;0.50;0.50;;;;;;;;;;5033740;28;20076;-69
2023/12/20 08:56:15;;;;;;;0.60;0.60;;;;;;;;;;5035141;28;20077;-71
2023/12/20 08:58:40;;;;;;;0.68;0.68;;;;;;;;;;5036594;28;20408;-70
2023/12/20 09:01:06;;;;;;;1.85;0.60;;;;;;;;;;5035444;28;20150;-71
2023/12/20 09:03:32;;;;;;;0.88;0.65;;;;;;;;;;5035787;28;20053;-70
2023/12/20 09:05:58;;;;;;;0.60;0.60;;;;;;;;;;5036036;28;20040;-68
2023/12/20 09:08:23;;;;;;;1.15;0.80;;;;;;;;;;5034822;28;20048;-68
2023/12/20 09:10:48;;;;;;;0.95;0.70;;;;;;;;;;5035892;28;20059;-69
2023/12/20 09:13:14;;;;;;;0.55;0.55;;;;;;;;;;5036418;28;20085;-67
2023/12/20 09:15:39;;;;;;;1.00;0.60;;;;;;;;;;5035028;28;20061;-68
2023/12/20 09:18:05;;;;;;;0.70;0.70;;;;;;;;;;5035950;28;20139;-71
2023/12/20 09:20:31;;;;;;;0.50;0.50;;;;;;;;;;5034842;28;20045;-73
2023/12/20 09:22:56;;;;;;;0.77;0.77;;;;;;;;;;5038006;28;20120;-68
2023/12/20 09:25:23;;;;;;;0.55;0.55;;;;;;;;;;5038504;28;20067;-70
2023/12/20 09:27:48;;;;;;;0.60;0.50;;;;;;;;;;5040300;28;20059;-69
2023/12/20 09:30:14;;;;;;;0.70;0.70;;;;;;;;;;5037491;28;20072;-69
2023/12/20 09:32:39;;;;;;;0.52;0.52;;;;;;;;;;5040261;28;20053;-69
2023/12/20 09:35:06;;;;;;;0.85;0.85;;;;;;;;;;5038193;28;20053;-68
2023/12/20 09:37:31;;;;;;;0.93;0.80;;;;;;;;;;5039948;28;20072;-69
2023/12/20 09:39:57;;;;;;;0.50;0.50;;;;;;;;;;5039152;28;20079;-68
2023/12/20 09:42:54;;;;;;;1.65;0.65;;;;;;;;;;5036985;28;20582;-71
2023/12/20 09:45:21;;;;;;;0.35;0.35;;;;;;;;;;5032026;28;20049;-72
2023/12/20 09:47:48;;;;;;;0.70;0.70;;;;;;;;;;5039448;28;20072;-66
2023/12/20 09:50:14;;;;;;;0.98;0.60;;;;;;;;;;5038488;28;20076;-67
2023/12/20 09:52:40;;;;;;;0.57;0.57;;;;;;;;;;5038735;28;20202;-67
2023/12/20 09:55:07;;;;;;;0.80;0.80;;;;;;;;;;5038213;28;20044;-70
2023/12/20 09:57:33;;;;;;;0.20;0.20;;;;;;;;;;5038792;28;20072;-71
2023/12/20 09:59:58;;;;;;;3.97;0.70;;;;;;;;;;5039490;28;20531;-68
2023/12/20 10:02:27;;;;;;;0.75;0.75;;;;;;;;;;5021930;28;20033;-68
2023/12/20 10:04:52;;;;;;;0.50;0.50;;;;;;;;;;5022514;28;20053;-71
2023/12/20 10:07:18;;;;;;;0.70;0.70;;;;;;;;;;5019172;28;20037;-68
2023/12/20 10:09:44;;;;;;;0.60;0.60;;;;;;;;;;5020633;28;20136;-68
2023/12/20 10:12:09;;;;;;;0.85;0.85;;;;;;;;;;5020086;28;20058;-68
2023/12/20 10:14:35;;;;;;;1.02;0.60;;;;;;;;;;5020123;28;20079;-68
2023/12/20 10:17:04;;;;;;;0.90;0.90;;;;;;;;;;5021556;28;20037;-69
2023/12/20 10:19:30;;;;;;;0.85;0.85;;;;;;;;;;5005015;28;20049;-68
2023/12/20 10:21:58;;;;;;;1.15;0.90;;;;;;;;;;5026113;28;20065;-70
2023/12/20 10:24:24;;;;;;;1.08;1.08;;;;;;;;;;5018843;28;20049;-71
2023/12/20 10:27:03;;;;;;;0.95;0.95;;;;;;;;;;5019899;28;20104;-67
2023/12/20 10:29:35;;;;;;;1.00;1.00;;;;;;;;;;5024872;28;20053;-67
2023/12/20 10:32:26;;;;;;;1.20;0.90;;;;;;;;;;5031038;28;20045;-70
2023/12/20 10:34:53;;;;;;;0.70;0.70;;;;;;;;;;5057882;28;20044;-67
2023/12/20 10:37:19;;;;;;;0.93;0.93;;;;;;;;;;5056478;28;20040;-72
2023/12/20 10:39:50;;;;;;;0.80;0.80;;;;;;;;;;5058191;28;20081;-70
2023/12/20 10:42:16;;;;;;;0.80;0.80;;;;;;;;;;5057433;28;20035;-67
2023/12/20 10:44:42;;;;;;;0.45;0.45;;;;;;;;;;5059973;28;20055;-71
2023/12/20 10:47:11;;;;;;;0.52;0.52;;;;;;;;;;5058776;28;20076;-72
2023/12/20 10:49:39;;;;;;;2.15;0.90;;;;;;;;;;5058334;28;20052;-69
2023/12/20 10:52:05;;;;;;;0.80;0.60;;;;;;;;;;5057955;28;20044;-69
2023/12/20 10:54:31;;;;;;;0.75;0.75;;;;;;;;;;5057722;28;20488;-71
2023/12/20 10:56:58;;;;;;;0.70;0.70;;;;;;;;;;5057180;28;20060;-68
2023/12/20 10:59:24;;;;;;;1.08;0.98;;;;;;;;;;5056938;28;20047;-73
2023/12/20 11:01:52;;;;;;;0.70;0.70;;;;;;;;;;5057772;28;20044;-72
2023/12/20 11:04:24;;;;;;;0.70;0.70;;;;;;;;;;5056415;28;20147;-68
2023/12/20 11:06:59;;;;;;;0.70;0.70;;;;;;;;;;5057793;28;20052;-71
2023/12/20 11:09:29;;;;;;;0.88;0.88;;;;;;;;;;5056783;28;20838;-70
2023/12/20 11:12:16;;;;;;;0.55;0.55;;;;;;;;;;5057899;28;20063;-72
2023/12/20 11:14:51;;;;;;;0.60;0.60;;;;;;;;;;5057468;28;20044;-69
2023/12/20 11:17:17;;;;;;;0.65;0.65;;;;;;;;;;5056844;28;20051;-72
2023/12/20 11:19:52;;;;;;;0.98;0.90;;;;;;;;;;5057007;28;20480;-71
2023/12/20 11:22:17;;;;;;;1.08;0.90;;;;;;;;;;5056470;28;20414;-68
2023/12/20 11:24:46;;;;;;;0.63;0.63;;;;;;;;;;5057538;28;20045;-71
2023/12/20 11:27:13;;;;;;;1.08;0.93;;;;;;;;;;5056517;28;20084;-68
2023/12/20 11:29:39;;;;;;;0.60;0.60;;;;;;;;;;5058172;28;20071;-69
2023/12/20 11:32:29;;;;;;;0.60;0.60;;;;;;;;;;5055337;28;20055;-71
2023/12/20 11:35:00;;;;;;;0.60;0.60;;;;;;;;;;5057259;28;20414;-66
2023/12/20 11:37:35;;;;;;;0.63;0.63;;;;;;;;;;5056746;28;20752;-77
2023/12/20 11:40:05;;;;;;;0.80;0.80;;;;;;;;;;5056781;28;20066;-69
2023/12/20 11:42:38;;;;;;;0.70;0.70;;;;;;;;;;5055257;28;20166;-67
2023/12/20 11:45:03;;;;;;;2.38;0.88;;;;;;;;;;5055316;28;20120;-69
2023/12/20 11:47:31;;;;;;;0.65;0.65;;;;;;;;;;5056448;28;20490;-69
2023/12/20 11:49:56;;;;;;;1.20;1.10;;;;;;;;;;5055431;28;20083;-74
2023/12/20 11:52:22;;;;;;;0.70;0.70;;;;;;;;;;5053542;28;20044;-72
2023/12/20 11:54:47;;;;;;;0.68;0.68;;;;;;;;;;5057743;28;20851;-73
2023/12/20 11:57:13;;;;;;;1.85;1.20;;;;;;;;;;5056231;28;20048;-70
2023/12/20 11:59:39;;;;;;;0.57;0.57;;;;;;;;;;5039636;28;20056;-67
2023/12/20 12:02:04;;;;;;;0.73;0.73;;;;;;;;;;5055826;28;20032;-70
2023/12/20 12:04:30;;;;;;;1.77;1.67;;;;;;;;;;5055977;28;20059;-71
2023/12/20 12:06:55;;;;;;;0.73;0.70;;;;;;;;;;5056552;28;20218;-71
2023/12/20 12:09:20;;;;;;;2.20;1.38;;;;;;;;;;5056725;28;20036;-69
2023/12/20 12:11:46;;;;;;;1.30;1.20;;;;;;;;;;5056854;28;20509;-76
2023/12/20 12:14:11;;;;;;;1.30;1.20;;;;;;;;;;5054770;28;20131;-71
2023/12/20 12:16:37;;;;;;;1.17;1.08;;;;;;;;;;5048890;28;20511;-68
2023/12/20 12:19:04;;;;;;;1.27;1.17;;;;;;;;;;5021572;28;20049;-68
2023/12/20 12:21:29;;;;;;;1.10;1.08;;;;;;;;;;5018342;28;20037;-69
2023/12/20 12:24:06;;;;;;;0.90;0.90;;;;;;;;;;5017707;28;20045;-68
2023/12/20 12:26:31;;;;;;;0.80;0.80;;;;;;;;;;5023733;28;20049;-70
2023/12/20 12:28:57;;;;;;;0.80;0.80;;;;;;;;;;5017694;28;20671;-68
2023/12/20 12:31:25;;;;;;;0.70;0.70;;;;;;;;;;5024333;28;20467;-68
2023/12/20 12:33:50;;;;;;;1.85;1.70;;;;;;;;;;5016379;28;20136;-69
2023/12/20 12:36:17;;;;;;;1.00;0.90;;;;;;;;;;5015551;28;20045;-72
2023/12/20 12:38:43;;;;;;;0.98;0.95;;;;;;;;;;5018402;28;20045;-70
2023/12/20 12:41:10;;;;;;;0.73;0.73;;;;;;;;;;5013532;28;20033;-70
2023/12/20 12:43:35;;;;;;;1.88;1.17;;;;;;;;;;5015002;28;20060;-73
2023/12/20 12:46:01;;;;;;;25.45;12.48;;;;;;;;;;5020500;28;20045;-70
2023/12/20 12:48:28;;;;;;;1.77;1.55;;;;;;;;;;5019670;28;20041;-71
2023/12/20 12:50:54;;;;;;;0.80;0.80;;;;;;;;;;5020073;28;20049;-72
2023/12/20 12:53:19;;;;;;;1.30;1.20;;;;;;;;;;5018306;28;20049;-67
2023/12/20 12:55:45;;;;;;;0.90;0.90;;;;;;;;;;5016207;28;20044;-68
2023/12/20 12:58:11;;;;;;;0.82;0.80;;;;;;;;;;5049873;28;20767;-69
2023/12/20 13:00:37;;;;;;;0.60;0.60;;;;;;;;;;5020129;28;20073;-67
2023/12/20 13:03:03;;;;;;;0.75;0.73;;;;;;;;;;5020518;28;20630;-70
2023/12/20 13:05:29;;;;;;;2.25;1.95;;;;;;;;;;5019895;28;20140;-67
2023/12/20 13:07:55;;;;;;;1.30;1.20;;;;;;;;;;5022520;28;20037;-67
2023/12/20 13:10:20;;;;;;;0.90;0.90;;;;;;;;;;5019758;28;20396;-67
2023/12/20 13:12:45;;;;;;;2.08;1.10;;;;;;;;;;5019611;28;20801;-70
2023/12/20 13:15:11;;;;;;;0.77;0.77;;;;;;;;;;5018469;28;20057;-66
2023/12/20 13:17:37;;;;;;;0.82;0.82;;;;;;;;;;5019929;28;20091;-73
2023/12/20 13:20:03;;;;;;;1.10;1.10;;;;;;;;;;5023583;28;20349;-68
2023/12/20 13:22:28;;;;;;;2.22;0.95;;;;;;;;;;5020616;28;20553;-65
2023/12/20 13:24:54;;;;;;;0.60;0.52;;;;;;;;;;5022487;28;20045;-69
2023/12/20 13:27:19;;;;;;;0.90;0.90;;;;;;;;;;5021821;28;20045;-65
2023/12/20 13:29:45;;;;;;;0.80;0.80;;;;;;;;;;5022492;28;20068;-67
2023/12/20 13:32:10;;;;;;;0.80;0.80;;;;;;;;;;5023393;28;20091;-66
2023/12/20 13:34:36;;;;;;;0.98;0.98;;;;;;;;;;5007981;28;20071;-68
2023/12/20 13:37:01;;;;;;;2.72;0.80;;;;;;;;;;5041953;28;20056;-66
2023/12/20 13:39:26;;;;;;;0.93;0.90;;;;;;;;;;5039299;28;20072;-67
2023/12/20 13:41:52;;;;;;;1.00;0.90;;;;;;;;;;5041440;28;20041;-66
2023/12/20 13:44:17;;;;;;;0.93;0.93;;;;;;;;;;5047925;28;20072;-69
2023/12/20 13:46:43;;;;;;;0.90;0.90;;;;;;;;;;5049289;28;20056;-71
2023/12/20 13:49:08;;;;;;;1.70;1.38;;;;;;;;;;5040307;28;20673;-66
2023/12/20 13:51:34;;;;;;;1.70;1.25;;;;;;;;;;5048899;28;20063;-69
2023/12/20 13:53:59;;;;;;;1.50;1.40;;;;;;;;;;5054567;28;20040;-69
2023/12/20 13:56:26;;;;;;;1.60;1.50;;;;;;;;;;5054776;28;20045;-68
2023/12/20 13:58:51;;;;;;;1.92;1.35;;;;;;;;;;5047269;28;21119;-72
2023/12/20 14:01:17;;;;;;;1.63;1.52;;;;;;;;;;5050348;28;20090;-68
2023/12/20 14:03:42;;;;;;;2.08;1.90;;;;;;;;;;5052228;28;20151;-72
2023/12/20 14:06:07;;;;;;;2.20;2.00;;;;;;;;;;5041751;28;20701;-75
2023/12/20 14:08:33;;;;;;;2.35;2.15;;;;;;;;;;5050668;28;20049;-67
2023/12/20 14:10:58;;;;;;;2.03;1.90;;;;;;;;;;5050119;28;20503;-69
2023/12/20 14:13:24;;;;;;;2.03;1.67;;;;;;;;;;5055848;28;20060;-67
2023/12/20 14:15:49;;;;;;;1.23;1.15;;;;;;;;;;5051390;28;20982;-70
2023/12/20 14:18:15;;;;;;;3.13;2.35;;;;;;;;;;5041786;28;20045;-72
2023/12/20 14:20:42;;;;;;;1.45;1.35;;;;;;;;;;5051602;28;20961;-70
2023/12/20 14:23:09;;;;;;;4.65;1.33;;;;;;;;;;5055806;28;20087;-73
2023/12/20 14:25:37;;;;;;;1.88;1.77;;;;;;;;;;5049680;28;20150;-71
2023/12/20 14:28:03;;;;;;;1.73;1.63;;;;;;;;;;5028604;28;20037;-71
2023/12/20 14:30:29;;;;;;;2.53;2.10;;;;;;;;;;5019640;28;20045;-73
2023/12/20 14:32:54;;;;;;;1.23;1.13;;;;;;;;;;5051502;28;20074;-70
2023/12/20 14:35:20;;;;;;;2.72;2.22;;;;;;;;;;5019520;28;20466;-70
2023/12/20 14:37:45;;;;;;;1.83;1.73;;;;;;;;;;5040683;28;20069;-70